Time;durP1;ratioP1;P1;durP2;ratioP2;P2;SDS_P1;SDS_P2;PMS_P1;PMS_P2;Temp;Humidity;BMP_temperature;BMP_pressure;BME280_temperature;BME280_humidity;BME280_pressure;Samples;Min_cycle;Max_cycle;Signal;HPM_P1;HPM_P2
2023/12/04 00:02:23;;;;;;;;;2.00;2.00;;;;;21.42;45.92;101288.52;112116;1247;18637;-31
2023/12/04 00:04:51;;;;;;;;;2.00;2.00;;;;;21.42;46.03;101291.95;112273;1254;20265;-31
2023/12/04 00:07:18;;;;;;;;;3.33;2.00;;;;;21.40;46.13;101290.42;112163;1247;20831;-31
2023/12/04 00:09:45;;;;;;;;;2.33;2.00;;;;;21.40;45.82;101292.42;112181;1262;18371;-31
2023/12/04 00:12:13;;;;;;;;;2.00;2.00;;;;;21.41;46.04;101295.71;112090;1262;18648;-31
2023/12/04 00:14:40;;;;;;;;;5.00;4.00;;;;;21.40;46.01;101297.06;112240;1247;21984;-31
2023/12/04 00:17:07;;;;;;;;;2.00;2.00;;;;;21.40;46.12;101300.55;112191;1250;19663;-31
2023/12/04 00:19:35;;;;;;;;;4.00;2.00;;;;;21.40;46.05;101300.98;112104;1247;21025;-31
2023/12/04 00:22:02;;;;;;;;;4.00;2.00;;;;;21.40;46.00;101299.79;112058;1247;19313;-31
2023/12/04 00:24:29;;;;;;;;;1.50;1.50;;;;;21.41;45.90;101305.25;112053;1247;19625;-31
2023/12/04 00:26:56;;;;;;;;;2.00;2.00;;;;;21.41;46.03;101307.92;112236;1247;20200;-31
2023/12/04 00:29:24;;;;;;;;;2.00;2.00;;;;;21.42;46.14;101308.90;112169;1247;20814;-31
2023/12/04 00:31:51;;;;;;;;;2.00;2.00;;;;;21.41;45.80;101309.71;112286;1247;18637;-31
2023/12/04 00:34:18;;;;;;;;;3.00;3.00;;;;;21.41;46.03;101308.03;111945;1263;19930;-31
2023/12/04 00:36:46;;;;;;;;;4.00;4.00;;;;;21.42;46.07;101306.40;112226;1247;21121;-31
2023/12/04 00:39:13;;;;;;;;;2.00;2.00;;;;;21.40;45.74;101310.59;112077;1262;18221;-31
2023/12/04 00:41:40;;;;;;;;;2.00;2.00;;;;;21.40;46.15;101313.36;112174;1247;18589;-31
2023/12/04 00:44:08;;;;;;;;;1.00;1.00;;;;;21.39;45.98;101311.28;112043;1255;20653;-31
2023/12/04 00:46:35;;;;;;;;;2.67;2.67;;;;;21.39;46.06;101310.23;112178;1247;19622;-31
2023/12/04 00:49:02;;;;;;;;;2.00;2.00;;;;;21.39;45.99;101312.86;112238;1262;18644;-31
2023/12/04 00:51:30;;;;;;;;;2.00;2.00;;;;;21.40;45.90;101313.31;112092;1262;19353;-31
2023/12/04 00:53:57;;;;;;;;;2.00;2.00;;;;;21.40;46.02;101310.58;112247;1247;19605;-31
2023/12/04 00:56:24;;;;;;;;;1.00;1.00;;;;;21.40;46.00;101314.78;112004;1262;19110;-31
2023/12/04 00:58:52;;;;;;;;;1.50;1.50;;;;;21.40;46.10;101315.86;112086;1247;20750;-31
2023/12/04 01:01:19;;;;;;;;;2.00;2.00;;;;;21.40;45.83;101318.81;112109;1247;18212;-31
2023/12/04 01:03:46;;;;;;;;;1.00;1.00;;;;;21.41;46.00;101324.86;112343;1247;18619;-31
2023/12/04 01:06:13;;;;;;;;;2.00;2.00;;;;;21.40;45.99;101326.11;112226;1246;20908;-31
2023/12/04 01:08:41;;;;;;;;;1.67;1.67;;;;;21.41;46.14;101330.86;112371;1246;19549;-30
2023/12/04 01:11:08;;;;;;;;;1.50;1.50;;;;;21.40;45.87;101324.54;112277;1248;21227;-31
2023/12/04 01:13:35;;;;;;;;;2.00;2.00;;;;;21.39;46.11;101326.21;112414;1261;19433;-31
2023/12/04 01:16:03;;;;;;;;;2.00;2.00;;;;;21.39;45.80;101323.21;112282;1246;19544;-31
2023/12/04 01:18:30;;;;;;;;;2.33;2.33;;;;;21.38;45.91;101326.48;112254;1246;20032;-31
2023/12/04 01:20:58;;;;;;;;;2.00;2.00;;;;;21.37;46.01;101327.17;112283;1261;19322;-31
2023/12/04 01:23:25;;;;;;;;;2.00;2.00;;;;;21.37;45.97;101333.34;112174;1261;18198;-31
2023/12/04 01:25:52;;;;;;;;;1.50;1.50;;;;;21.37;46.01;101334.27;112303;1248;19980;-31
2023/12/04 01:28:20;;;;;;;;;2.00;2.00;;;;;21.37;45.87;101329.48;112167;1261;19337;-31
2023/12/04 01:30:47;;;;;;;;;3.00;2.00;;;;;21.37;46.15;101330.45;112315;1248;19851;-31
2023/12/04 01:33:14;;;;;;;;;3.50;2.50;;;;;21.35;46.09;101331.80;112181;1256;19848;-31
2023/12/04 01:35:42;;;;;;;;;2.00;2.00;;;;;21.37;46.04;101336.06;112347;1261;19382;-31
2023/12/04 01:38:09;;;;;;;;;1.33;1.33;;;;;21.36;45.84;101333.22;112193;1247;19619;-31
2023/12/04 01:40:36;;;;;;;;;1.00;1.00;;;;;21.36;45.81;101333.88;112061;1247;347593;-31
2023/12/04 01:43:03;;;;;;;;;2.00;2.00;;;;;21.36;45.96;101338.02;112257;1246;20990;-31
2023/12/04 01:45:31;;;;;;;;;2.00;1.00;;;;;21.35;46.00;101337.58;112309;1261;18629;-31
2023/12/04 01:47:58;;;;;;;;;4.00;4.00;;;;;21.36;45.80;101336.60;112263;1246;20018;-31
2023/12/04 01:50:25;;;;;;;;;1.00;1.00;;;;;21.38;45.96;101336.89;112177;1247;20840;-31
2023/12/04 01:52:53;;;;;;;;;2.00;2.00;;;;;21.38;46.05;101335.95;112300;1246;19669;-31
2023/12/04 01:55:21;;;;;;;;;2.00;2.00;;;;;21.36;45.90;101340.37;112192;1248;20062;-31
2023/12/04 01:57:49;;;;;;;;;2.00;2.00;;;;;21.38;45.80;101343.04;112229;1246;20798;-31
2023/12/04 02:00:16;;;;;;;;;2.00;2.00;;;;;21.37;45.83;101340.42;112198;1247;19692;-31
2023/12/04 02:02:43;;;;;;;;;2.00;2.00;;;;;21.35;45.74;101338.07;112236;1250;20078;-31
2023/12/04 02:05:11;;;;;;;;;2.00;2.00;;;;;21.36;45.94;101343.64;112153;1262;20788;-31
2023/12/04 02:07:38;;;;;;;;;2.00;2.00;;;;;21.37;45.73;101339.22;112281;1247;19591;-31
2023/12/04 02:10:06;;;;;;;;;1.00;1.00;;;;;21.36;45.92;101341.62;112187;1248;20107;-31
2023/12/04 02:12:33;;;;;;;;;1.00;1.00;;;;;21.36;45.90;101339.27;112250;1247;20805;-31
2023/12/04 02:15:00;;;;;;;;;2.00;2.00;;;;;21.37;45.65;101341.84;112185;1254;19699;-31
2023/12/04 02:17:28;;;;;;;;;1.50;1.00;;;;;21.35;45.87;101344.49;112237;1254;21225;-31
2023/12/04 02:19:55;;;;;;;;;1.00;1.00;;;;;21.35;45.73;101345.96;112143;1247;21820;-31
2023/12/04 02:22:22;;;;;;;;;1.67;1.67;;;;;21.34;45.94;101343.89;112313;1250;19688;-31
2023/12/04 02:24:50;;;;;;;;;1.00;1.00;;;;;21.35;45.70;101342.59;112168;1262;19638;-31
2023/12/04 02:27:17;;;;;;;;;1.00;1.00;;;;;21.36;45.80;101343.20;112262;1248;20893;-31
2023/12/04 02:29:44;;;;;;;;;1.00;1.00;;;;;21.37;45.88;101338.58;112194;1247;19644;-31
2023/12/04 02:32:11;;;;;;;;;2.67;2.00;;;;;21.34;45.83;101337.18;112184;1262;18628;-31
2023/12/04 02:34:39;;;;;;;;;2.00;2.00;;;;;21.35;45.73;101337.73;112182;1247;21938;-31
2023/12/04 02:37:06;;;;;;;;;1.00;1.00;;;;;21.36;45.97;101336.71;112213;1262;18188;-31
2023/12/04 02:39:33;;;;;;;;;2.50;2.00;;;;;21.34;45.73;101341.55;112232;1254;19880;-31
2023/12/04 02:42:01;;;;;;;;;3.00;3.00;;;;;21.34;45.68;101345.09;112195;1247;20750;-31
2023/12/04 02:44:28;;;;;;;;;2.33;2.33;;;;;21.35;45.61;101345.75;112132;1247;19654;-31
2023/12/04 02:46:55;;;;;;;;;3.00;2.00;;;;;21.35;45.57;101350.71;112084;1262;18900;-31
2023/12/04 02:49:23;;;;;;;;;3.00;3.00;;;;;21.34;45.72;101348.36;112265;1247;20812;-31
2023/12/04 02:51:50;;;;;;;;;3.00;3.00;;;;;21.34;45.58;101345.90;112197;1254;19509;-31
2023/12/04 02:54:17;;;;;;;;;1.00;1.00;;;;;21.35;45.78;101350.38;112152;1257;18732;-31
2023/12/04 02:56:45;;;;;;;;;1.00;1.00;;;;;21.34;45.50;101348.85;112147;1247;20813;-31
2023/12/04 02:59:12;;;;;;;;;3.00;3.00;;;;;21.33;45.44;101348.73;112030;1262;18957;-31
2023/12/04 03:01:39;;;;;;;;;3.50;2.00;;;;;21.32;45.68;101349.27;112006;1263;18593;-31
2023/12/04 03:04:06;;;;;;;;;1.00;1.00;;;;;21.33;45.81;101350.42;112045;1248;20803;-31
2023/12/04 03:06:34;;;;;;;;;2.00;2.00;;;;;21.33;45.80;101352.27;111999;1263;19502;-31
2023/12/04 03:09:01;;;;;;;;;1.00;1.00;;;;;21.33;45.73;101345.57;112082;1248;20097;-30
2023/12/04 03:11:28;;;;;;;;;3.00;3.00;;;;;21.33;45.61;101348.35;112048;1248;20826;-31
2023/12/04 03:13:56;;;;;;;;;3.00;3.00;;;;;21.35;45.44;101353.60;112077;1263;19675;-31
2023/12/04 03:16:23;;;;;;;;;3.00;3.00;;;;;21.33;45.72;101353.48;112046;1263;18646;-31
2023/12/04 03:18:50;;;;;;;;;1.00;1.00;;;;;21.33;45.65;101355.81;112137;1247;21159;-31
2023/12/04 03:21:18;;;;;;;;;3.00;3.00;;;;;21.33;45.47;101355.81;112003;1248;19613;-31
2023/12/04 03:23:45;;;;;;;;;1.00;1.00;;;;;21.34;45.64;101361.59;112110;1263;18565;-31
2023/12/04 03:26:12;;;;;;;;;3.00;3.00;;;;;21.33;45.73;101360.99;112029;1248;20786;-31
2023/12/04 03:28:40;;;;;;;;;3.00;3.00;;;;;21.33;45.74;101361.92;112038;1257;18275;-31
2023/12/04 03:31:07;;;;;;;;;3.00;3.00;;;;;21.33;45.73;101369.29;112006;1257;20048;-31
2023/12/04 03:33:34;;;;;;;;;3.00;3.00;;;;;21.33;45.72;101368.13;111984;1248;20672;-31
2023/12/04 03:36:02;;;;;;;;;3.00;3.00;;;;;21.33;45.74;101371.73;112071;1263;18777;-31
2023/12/04 03:38:29;;;;;;;;;4.00;3.00;;;;;21.32;45.53;101373.52;112036;1248;20038;-31
2023/12/04 03:40:56;;;;;;;;;2.00;2.00;;;;;21.32;45.54;101372.38;112130;1248;20869;-31
2023/12/04 03:43:24;;;;;;;;;3.00;3.00;;;;;21.33;45.75;101375.38;112008;1256;18628;-31
2023/12/04 03:45:51;;;;;;;;;3.00;1.67;;;;;21.32;45.67;101377.98;112161;1248;20070;-31
2023/12/04 03:48:18;;;;;;;;;3.00;3.00;;;;;21.33;45.46;101378.33;111973;1248;20773;-30
2023/12/04 03:50:46;;;;;;;;;3.00;3.00;;;;;21.33;45.35;101375.33;112184;1263;18193;-31
2023/12/04 03:53:13;;;;;;;;;3.00;3.00;;;;;21.32;45.46;101374.39;112057;1248;20506;-31
2023/12/04 03:55:40;;;;;;;;;4.00;3.50;;;;;21.33;45.46;101374.84;112188;1247;22110;-30
2023/12/04 03:58:08;;;;;;;;;3.00;3.00;;;;;21.33;45.44;101378.44;112078;1248;19667;-30
2023/12/04 04:00:40;;;;;;;;;3.00;3.00;;;;;21.32;45.58;101376.73;112201;1263;21549;-31
2023/12/04 04:03:08;;;;;;;;;3.00;3.00;;;;;21.31;45.61;101376.19;112126;1248;20757;-30
2023/12/04 04:05:35;;;;;;;;;3.00;3.00;;;;;21.32;45.52;101376.84;112126;1250;19768;-30
2023/12/04 04:08:02;;;;;;;;;3.00;3.00;;;;;21.30;45.46;101371.22;112129;1247;18774;-31
2023/12/04 04:10:30;;;;;;;;;3.00;3.00;;;;;21.31;45.62;101374.11;111970;1263;20643;-30
2023/12/04 04:12:57;;;;;;;;;2.00;2.00;;;;;21.31;45.57;101376.06;112130;1248;19804;-30
2023/12/04 04:15:25;;;;;;;;;4.00;3.00;;;;;21.30;45.67;101372.30;112016;1257;19955;-30
2023/12/04 04:17:52;;;;;;;;;3.00;3.00;;;;;21.28;45.64;101372.52;112126;1263;19412;-30
2023/12/04 04:20:20;;;;;;;;;3.00;3.00;;;;;21.31;45.59;101371.50;112103;1263;21203;-30
2023/12/04 04:22:47;;;;;;;;;3.00;3.00;;;;;21.29;45.47;101369.23;112147;1263;19201;-31
2023/12/04 04:25:15;;;;;;;;;3.00;3.00;;;;;21.29;45.36;101370.83;111952;1263;19352;-30
2023/12/04 04:27:42;;;;;;;;;3.00;3.00;;;;;21.29;45.65;101368.91;112180;1263;18173;-31
2023/12/04 04:30:10;;;;;;;;;4.00;4.00;;;;;21.31;45.44;101371.93;111966;1263;21603;-31
2023/12/04 04:32:38;;;;;;;;;4.00;4.00;;;;;21.30;45.38;101372.20;112148;1248;19627;-30
2023/12/04 04:35:05;;;;;;;;;3.00;3.00;;;;;21.29;45.62;101373.94;112036;1263;18148;-31
2023/12/04 04:37:32;;;;;;;;;3.00;3.00;;;;;21.30;45.33;101373.88;112172;1263;18676;-30
2023/12/04 04:40:00;;;;;;;;;4.00;4.00;;;;;21.31;45.55;101381.02;111982;1263;19511;-30
2023/12/04 04:42:27;;;;;;;;;6.00;4.00;;;;;21.31;45.50;101383.73;112216;1247;19711;-30
2023/12/04 04:44:54;;;;;;;;;4.00;4.00;;;;;21.31;45.43;101381.47;111993;1255;19074;-30
2023/12/04 04:47:22;;;;;;;;;4.00;4.00;;;;;21.31;45.42;101382.34;112198;1249;20830;-31
2023/12/04 04:49:49;;;;;;;;;5.00;4.00;;;;;21.30;45.61;101379.01;112033;1248;19596;-30
2023/12/04 04:52:16;;;;;;;;;5.00;5.00;;;;;21.30;45.39;101379.99;112259;1248;18733;-31
2023/12/04 04:54:44;;;;;;;;;6.00;6.00;;;;;21.32;45.29;101378.27;112068;1256;20864;-30
2023/12/04 04:57:11;;;;;;;;;5.00;5.00;;;;;21.31;45.26;101380.38;112153;1248;20012;-30
2023/12/04 04:59:38;;;;;;;;;5.00;5.00;;;;;21.30;45.34;101373.48;112020;1249;18947;-30
2023/12/04 05:02:05;;;;;;;;;4.00;4.00;;;;;21.29;45.36;101376.66;112025;1250;19619;-30
2023/12/04 05:04:33;;;;;;;;;7.00;5.00;;;;;21.29;45.31;101373.33;112062;1257;19495;-31
2023/12/04 05:07:00;;;;;;;;;5.00;5.00;;;;;21.29;45.44;101369.95;111951;1264;19930;-30
2023/12/04 05:09:27;;;;;;;;;7.00;7.00;;;;;21.28;45.51;101378.39;112063;1249;20836;-31
2023/12/04 05:11:55;;;;;;;;;6.00;6.00;;;;;21.29;45.15;101378.45;111932;1264;18208;-31
2023/12/04 05:14:22;;;;;;;;;5.00;5.00;;;;;21.28;45.25;101377.80;112112;1249;21219;-31
2023/12/04 05:16:49;;;;;;;;;6.00;6.00;;;;;21.29;45.38;101381.29;111969;1264;19381;-31
2023/12/04 05:19:17;;;;;;;;;8.00;7.00;;;;;21.28;45.29;101382.26;112105;1249;19675;-31
2023/12/04 05:21:44;;;;;;;;;7.00;6.00;;;;;21.29;45.13;101380.47;111979;1251;20209;-31
2023/12/04 05:24:11;;;;;;;;;7.00;7.00;;;;;21.29;45.26;101387.02;112115;1250;20831;-31
2023/12/04 05:26:39;;;;;;;;;6.00;4.00;;;;;21.28;45.20;101388.41;111962;1249;19719;-31
2023/12/04 05:29:06;;;;;;;;;10.00;9.00;;;;;21.28;45.24;101392.28;111933;1257;20160;-32
2023/12/04 05:31:33;;;;;;;;;6.00;6.00;;;;;21.28;45.20;101392.55;111998;1264;20592;-31
2023/12/04 05:34:01;;;;;;;;;6.00;6.00;;;;;21.27;45.09;101389.39;111992;1249;21607;-31
2023/12/04 05:36:28;;;;;;;;;5.00;5.00;;;;;21.28;45.27;101384.80;112048;1248;20562;-31
2023/12/04 05:38:55;;;;;;;;;5.67;5.67;;;;;21.28;45.27;101386.89;112003;1249;18706;-31
2023/12/04 05:41:22;;;;;;;;;4.00;4.00;;;;;21.28;45.45;101391.90;112069;1264;18248;-31
2023/12/04 05:43:50;;;;;;;;;7.00;7.00;;;;;21.29;45.39;101396.38;111965;1249;20047;-31
2023/12/04 05:46:17;;;;;;;;;7.00;7.00;;;;;21.27;45.30;101397.89;112086;1250;20710;-31
2023/12/04 05:48:45;;;;;;;;;8.00;8.00;;;;;21.32;45.26;101392.05;111930;1249;19650;-31
2023/12/04 05:51:12;;;;;;;;;8.00;8.00;;;;;21.31;45.10;101379.42;112041;1264;18637;-31
2023/12/04 05:53:39;;;;;;;;;7.00;7.00;;;;;21.31;45.11;101391.45;111952;1264;18227;-31
2023/12/04 05:56:08;;;;;;;;;7.33;7.33;;;;;21.33;44.98;101390.09;111953;1249;19585;-31
2023/12/04 05:58:36;;;;;;;;;7.00;5.00;;;;;21.34;45.12;101386.67;112001;1249;20066;-31
2023/12/04 06:01:03;;;;;;;;;7.00;7.00;;;;;21.32;45.25;101380.65;112090;1247;20836;-30
2023/12/04 06:03:30;;;;;;;;;9.00;7.00;;;;;21.33;45.15;101377.55;112035;1247;19507;-31
2023/12/04 06:05:58;;;;;;;;;7.00;7.00;;;;;21.42;45.21;101379.05;112073;1247;19993;-31
2023/12/04 06:08:25;;;;;;;;;7.00;7.00;;;;;21.47;45.19;101378.23;112033;1247;20881;-31
2023/12/04 06:10:52;;;;;;;;;7.00;5.00;;;;;21.51;45.15;101379.73;112057;1263;19613;-31
2023/12/04 06:13:20;;;;;;;;;7.00;7.00;;;;;21.51;45.50;101378.75;111958;1263;19864;-31
2023/12/04 06:15:47;;;;;;;;;7.00;5.00;;;;;21.48;45.61;101383.58;111939;1263;19373;-31
2023/12/04 06:18:14;;;;;;;;;4.50;4.50;;;;;21.51;45.96;101383.98;111944;1247;19622;-31
2023/12/04 06:20:42;;;;;;;;;7.00;7.00;;;;;21.45;46.09;101379.91;111966;1263;20005;-31
2023/12/04 06:23:09;;;;;;;;;8.00;7.00;;;;;21.40;46.62;101388.58;111975;1247;20819;-31
2023/12/04 06:25:38;;;;;;;;;6.00;5.00;;;;;21.38;46.63;101386.59;112011;1256;19572;-31
2023/12/04 06:28:05;;;;;;;;;8.00;5.00;;;;;21.41;46.74;101391.04;111998;1247;19928;-31
2023/12/04 06:30:32;;;;;;;;;7.00;5.00;;;;;21.40;46.69;101388.04;111946;1263;20833;-30
2023/12/04 06:33:00;;;;;;;;;7.00;7.00;;;;;21.44;46.49;101389.27;111934;1247;19588;-31
2023/12/04 06:35:27;;;;;;;;;10.50;8.00;;;;;21.42;46.38;101390.45;111972;1247;21277;-32
2023/12/04 06:37:54;;;;;;;;;7.00;7.00;;;;;21.40;46.09;101396.55;111959;1263;19364;-31
2023/12/04 06:40:22;;;;;;;;;7.00;7.00;;;;;21.39;46.24;101393.64;112025;1247;19956;-31
2023/12/04 06:42:49;;;;;;;;;8.33;7.00;;;;;21.45;46.38;101392.01;111962;1263;18640;-31
2023/12/04 06:45:17;;;;;;;;;7.50;7.00;;;;;21.43;46.60;101397.05;112013;1247;20762;-31
2023/12/04 06:47:44;;;;;;;;;4.50;3.00;;;;;21.41;46.31;101393.00;111996;1263;20540;-31
2023/12/04 06:50:11;;;;;;;;;5.00;4.00;;;;;21.42;46.42;101384.61;112054;1262;18657;-31
2023/12/04 06:52:39;;;;;;;;;7.00;7.00;;;;;21.38;46.55;101388.17;112028;1247;20921;-31
2023/12/04 06:55:06;;;;;;;;;9.00;7.00;;;;;21.39;46.53;101386.82;112085;1247;19718;-31
2023/12/04 06:57:33;;;;;;;;;7.00;7.00;;;;;21.38;46.57;101396.13;111943;1263;21108;-30
2023/12/04 07:00:01;;;;;;;;;4.67;4.67;;;;;21.36;46.64;101398.95;112087;1247;20979;-31
2023/12/04 07:02:30;;;;;;;;;5.00;5.00;;;;;21.37;46.63;101387.84;111995;1256;19689;-31
2023/12/04 07:04:57;;;;;;;;;5.33;5.33;;;;;21.45;46.52;101391.90;112045;1247;18630;-31
2023/12/04 07:07:25;;;;;;;;;5.00;4.00;;;;;21.46;46.40;101389.02;111966;1248;20743;-31
2023/12/04 07:09:52;;;;;;;;;5.00;5.00;;;;;21.43;46.63;101387.19;112045;1247;19645;-31
2023/12/04 07:12:20;;;;;;;;;4.00;4.00;;;;;21.38;46.57;101388.67;111974;1256;21268;-31
2023/12/04 07:14:47;;;;;;;;;7.00;7.00;;;;;21.37;46.42;101389.20;112066;1247;20612;-31
2023/12/04 07:17:14;;;;;;;;;4.50;4.00;;;;;21.35;46.38;101381.40;111988;1263;18702;-31
2023/12/04 07:19:42;;;;;;;;;5.00;4.33;;;;;21.32;46.41;101379.25;112098;1247;20087;-31
2023/12/04 07:22:09;;;;;;;;;5.00;4.00;;;;;21.34;46.57;101377.41;111963;1247;20815;-31
2023/12/04 07:24:36;;;;;;;;;4.00;4.00;;;;;21.36;46.37;101379.98;112106;1247;19670;-31
2023/12/04 07:27:04;;;;;;;;;4.00;4.00;;;;;21.37;46.43;101386.05;111983;1247;20355;-31
2023/12/04 07:29:31;;;;;;;;;6.33;5.00;;;;;21.32;46.39;101394.28;112122;1247;22000;-31
2023/12/04 07:31:58;;;;;;;;;5.00;4.00;;;;;21.32;46.36;101397.39;112010;1247;19640;-31
2023/12/04 07:34:26;;;;;;;;;4.67;4.67;;;;;21.30;46.50;101394.87;112175;1247;20062;-32
2023/12/04 07:36:53;;;;;;;;;4.50;4.00;;;;;21.30;46.66;101395.36;111997;1256;20692;-31
2023/12/04 07:39:21;;;;;;;;;7.00;5.50;;;;;21.28;46.74;101388.80;112175;1247;19572;-31
2023/12/04 07:41:48;;;;;;;;;5.00;4.00;;;;;21.28;46.51;101383.48;111997;1263;18526;-31
2023/12/04 07:44:16;;;;;;;;;2.00;2.00;;;;;21.28;46.47;101387.51;112256;1262;18255;-31
2023/12/04 07:46:43;;;;;;;;;4.00;4.00;;;;;21.27;46.50;101386.55;112212;1262;18101;-31
2023/12/04 07:49:10;;;;;;;;;6.00;5.00;;;;;21.29;46.31;101388.96;112353;1249;20239;-31
2023/12/04 07:51:38;;;;;;;;;4.00;4.00;;;;;21.35;46.36;101388.75;112214;1262;19754;-31
2023/12/04 07:54:05;;;;;;;;;4.00;4.00;;;;;21.31;46.29;101398.54;112093;1247;19684;-31
2023/12/04 07:56:32;;;;;;;;;5.50;5.00;;;;;21.29;46.10;101399.82;112117;1255;19648;-31
2023/12/04 07:59:00;;;;;;;;;5.00;4.00;;;;;21.27;46.21;101398.48;111893;1247;20801;-31
2023/12/04 08:01:27;;;;;;;;;4.50;4.50;;;;;21.27;46.41;101398.88;112139;1263;18818;-31
2023/12/04 08:03:54;;;;;;;;;4.00;4.00;;;;;21.31;46.19;101394.82;111995;1255;20631;-31
2023/12/04 08:06:22;;;;;;;;;4.00;4.00;;;;;21.29;46.08;101391.75;112204;1248;20809;-31
2023/12/04 08:08:49;;;;;;;;;5.00;4.00;;;;;21.28;46.23;101395.28;112011;1263;18173;-31
2023/12/04 08:11:17;;;;;;;;;4.00;4.00;;;;;21.27;46.28;101389.11;112215;1250;20027;-31
2023/12/04 08:13:44;;;;;;;;;5.00;4.00;;;;;21.32;45.97;101398.92;112021;1247;19356;-31
2023/12/04 08:16:12;;;;;;;;;4.00;4.00;;;;;21.32;45.96;101397.01;112195;1256;21602;-31
2023/12/04 08:18:39;;;;;;;;;5.00;5.00;;;;;21.32;45.80;101394.73;112034;1247;19919;-29
2023/12/04 08:21:07;;;;;;;;;4.00;4.00;;;;;21.40;45.62;101397.02;112226;1263;19355;-31
2023/12/04 08:23:34;;;;;;;;;5.00;5.00;;;;;21.32;45.68;101398.38;112045;1248;19648;-31
2023/12/04 08:26:01;;;;;;;;;4.00;4.00;;;;;21.31;45.89;101391.98;112260;1248;20010;-31
2023/12/04 08:28:28;;;;;;;;;4.00;4.00;;;;;21.35;45.84;101394.64;112097;1263;19261;-31
2023/12/04 08:30:56;;;;;;;;;4.00;4.00;;;;;21.35;45.71;101394.36;112109;1250;19725;-31
2023/12/04 08:33:23;;;;;;;;;5.00;5.00;;;;;21.35;46.20;101391.42;112089;1248;21378;-31
2023/12/04 08:35:50;;;;;;;;;4.67;4.67;;;;;21.38;45.94;101404.04;111997;1248;19453;-31
2023/12/04 08:38:18;;;;;;;;;5.00;5.00;;;;;21.36;46.35;101401.36;112113;1257;19825;-31
2023/12/04 08:40:45;;;;;;;;;7.00;5.00;;;;;21.41;46.82;101410.66;111996;1263;20481;-31
2023/12/04 08:43:12;;;;;;;;;5.00;4.00;;;;;21.44;46.93;101416.84;112133;1256;20687;-31
2023/12/04 08:45:40;;;;;;;;;5.00;5.00;;;;;21.42;46.97;101423.36;111965;1248;19593;-30
2023/12/04 08:48:07;;;;;;;;;5.00;5.00;;;;;21.40;46.90;101423.52;112175;1248;20248;-31
2023/12/04 08:50:34;;;;;;;;;4.00;4.00;;;;;21.42;47.03;101426.16;112002;1263;20957;-31
2023/12/04 08:53:02;;;;;;;;;6.50;5.00;;;;;21.40;47.17;101423.46;112213;1263;18192;-31
2023/12/04 08:55:29;;;;;;;;;4.33;4.00;;;;;21.39;47.29;101429.02;112007;1255;21113;-31
2023/12/04 08:57:57;;;;;;;;;4.00;4.00;;;;;21.39;47.23;101433.27;112216;1248;20705;-31
2023/12/04 09:00:24;;;;;;;;;4.00;4.00;;;;;21.38;47.57;101431.79;112035;1263;18422;-31
2023/12/04 09:02:51;;;;;;;;;4.00;4.00;;;;;21.44;47.20;101432.06;112030;1247;20200;-31
2023/12/04 09:05:19;;;;;;;;;5.00;5.00;;;;;21.49;47.43;101436.52;112069;1247;20852;-31
2023/12/04 09:07:46;;;;;;;;;5.00;5.00;;;;;21.49;47.24;101438.65;112025;1248;20767;-31
2023/12/04 09:10:13;;;;;;;;;5.00;5.00;;;;;21.52;47.26;101440.85;112091;1248;18588;-31
2023/12/04 09:12:41;;;;;;;;;4.33;4.00;;;;;21.52;47.16;101438.41;112051;1248;20804;-32
2023/12/04 09:15:08;;;;;;;;;4.00;4.00;;;;;21.54;46.97;101441.04;112140;1257;19504;-32
2023/12/04 09:17:35;;;;;;;;;4.50;4.50;;;;;21.57;47.00;101431.20;112030;1263;18643;-32
2023/12/04 09:20:04;;;;;;;;;7.00;4.00;;;;;21.57;47.32;101433.88;112152;1249;21188;-31
2023/12/04 09:22:34;;;;;;;;;4.00;4.00;;;;;21.56;47.83;101437.90;112148;1263;18241;-32
2023/12/04 09:25:02;;;;;;;;;4.00;4.00;;;;;21.59;47.75;101439.61;111993;1264;18863;-31
2023/12/04 09:27:29;;;;;;;;;4.00;4.00;;;;;21.57;47.65;101439.70;112019;1263;19326;-31
2023/12/04 09:29:56;;;;;;;;;4.00;4.00;;;;;21.58;47.72;101434.38;112024;1263;18183;-32
2023/12/04 09:32:24;;;;;;;;;5.00;4.00;;;;;21.53;47.59;101434.92;112046;1257;19867;-32
2023/12/04 09:34:51;;;;;;;;;5.00;5.00;;;;;21.53;47.37;101426.48;112007;1249;20850;-31
2023/12/04 09:37:19;;;;;;;;;4.00;4.00;;;;;21.49;47.78;101432.27;112056;1263;19588;-31
2023/12/04 09:39:49;;;;;;;;;5.00;4.00;;;;;21.48;47.63;101432.64;112027;1263;19971;-32
2023/12/04 09:42:18;;;;;;;;;4.50;4.50;;;;;21.44;47.81;101429.45;112030;1257;20500;-31
2023/12/04 09:44:45;;;;;;;;;4.00;4.00;;;;;21.43;47.62;101431.84;112068;1248;20334;-30
2023/12/04 09:47:13;;;;;;;;;4.00;4.00;;;;;21.42;47.80;101429.10;112080;1263;18636;-30
2023/12/04 09:49:40;;;;;;;;;4.00;4.00;;;;;21.43;47.36;101429.70;112007;1251;20926;-31
2023/12/04 09:52:07;;;;;;;;;4.00;4.00;;;;;21.41;47.52;101430.17;111979;1263;18653;-31
2023/12/04 09:54:34;;;;;;;;;4.00;4.00;;;;;21.40;47.29;101429.63;112012;1263;18630;-31
2023/12/04 09:57:03;;;;;;;;;4.00;4.00;;;;;21.40;47.42;101432.08;112037;1256;21868;-30
2023/12/04 09:59:30;;;;;;;;;4.00;2.00;;;;;21.40;47.30;101429.23;112094;1248;20025;-31
2023/12/04 10:01:57;;;;;;;;;5.00;4.00;;;;;21.41;47.41;101429.52;112005;1263;18961;-31
2023/12/04 10:04:25;;;;;;;;;4.00;4.00;;;;;21.41;47.32;101426.58;111999;1248;20765;-31
2023/12/04 10:06:52;;;;;;;;;4.00;4.00;;;;;21.47;47.04;101421.84;112017;1263;20663;-31
2023/12/04 10:09:22;;;;;;;;;2.00;2.00;;;;;21.46;47.08;101424.39;111989;1248;19948;-31
2023/12/04 10:11:49;;;;;;;;;2.00;2.00;;;;;21.52;47.12;101422.20;111990;1248;21985;-30
2023/12/04 10:14:17;;;;;;;;;5.00;5.00;;;;;21.50;47.01;101420.95;112031;1263;18173;-30
2023/12/04 10:16:45;;;;;;;;;3.50;2.00;;;;;21.51;47.22;101427.55;111961;1256;21443;-31
2023/12/04 10:19:12;;;;;;;;;4.00;4.00;;;;;21.48;47.09;101424.80;112103;1248;20716;-30
2023/12/04 10:21:39;;;;;;;;;4.00;4.00;;;;;21.44;47.03;101420.89;112009;1248;19629;-30
2023/12/04 10:24:06;;;;;;;;;2.33;2.33;;;;;21.41;47.27;101415.84;112136;1263;18622;-30
2023/12/04 10:26:34;;;;;;;;;4.00;4.00;;;;;21.43;47.29;101423.22;112046;1256;20727;-30
2023/12/04 10:29:01;;;;;;;;;4.00;4.00;;;;;21.42;46.95;101425.61;112106;1248;19590;-30
2023/12/04 10:31:28;;;;;;;;;4.00;4.00;;;;;21.43;46.94;101423.92;112052;1249;20088;-30
2023/12/04 10:33:56;;;;;;;;;6.67;4.33;;;;;21.49;47.20;101418.21;112265;1247;22005;-31
2023/12/04 10:36:23;;;;;;;;;4.00;4.00;;;;;21.46;47.23;101417.19;112010;1247;19602;-30
2023/12/04 10:38:50;;;;;;;;;4.00;4.00;;;;;21.45;47.11;101411.52;112110;1263;18777;-30
2023/12/04 10:41:18;;;;;;;;;4.00;4.00;;;;;21.46;47.26;101409.08;112032;1263;19341;-31
2023/12/04 10:43:45;;;;;;;;;4.00;4.00;;;;;21.50;47.22;101412.75;112025;1248;19596;-31
2023/12/04 10:46:13;;;;;;;;;4.00;4.00;;;;;21.51;47.38;101410.59;112013;1263;19931;-30
2023/12/04 10:48:40;;;;;;;;;5.00;5.00;;;;;21.48;47.00;101412.69;112026;1247;21926;-31
2023/12/04 10:51:07;;;;;;;;;4.00;4.00;;;;;21.52;46.91;101413.17;112158;1247;19775;-31
2023/12/04 10:53:35;;;;;;;;;4.00;4.00;;;;;21.48;47.12;101414.16;112160;1247;20045;-31
2023/12/04 10:56:02;;;;;;;;;5.00;5.00;;;;;21.50;47.10;101412.33;112276;1262;20721;-30
2023/12/04 10:58:29;;;;;;;;;4.00;4.00;;;;;21.51;46.68;101409.06;112143;1248;19582;-30
2023/12/04 11:00:57;;;;;;;;;5.00;5.00;;;;;21.47;46.99;101407.61;112293;1247;20069;-31
2023/12/04 11:03:24;;;;;;;;;4.00;4.00;;;;;21.47;47.18;101410.01;112115;1248;20908;-31
2023/12/04 11:05:52;;;;;;;;;4.00;4.00;;;;;21.49;47.37;101412.10;112185;1247;19944;-31
2023/12/04 11:08:19;;;;;;;;;4.00;4.00;;;;;21.51;47.30;101410.32;111976;1247;20988;-31
2023/12/04 11:10:47;;;;;;;;;4.00;4.00;;;;;21.50;47.35;101412.05;112206;1247;20725;-31
2023/12/04 11:13:14;;;;;;;;;4.00;4.00;;;;;21.55;47.25;101403.05;112033;1247;18728;-31
2023/12/04 11:15:41;;;;;;;;;4.00;4.00;;;;;21.56;47.23;101406.39;112215;1255;20101;-30
2023/12/04 11:18:09;;;;;;;;;4.00;4.00;;;;;21.56;47.34;101402.30;112053;1247;20765;-31